• Join FlightAware (Why Join?)
  • Login
  • US Flag 
12:54AM EST


 

Airport Tracker/Info


-or-


 

Live Flight TrackerFlight Track Log ✈ SKW6345 ✈ 30-May-2014 ✈ KLAX - KFAT

Flight Track Log - Related Links

Times and Time Zones

All times are in EDT time to prevent confusion due to time zone crossing. See the SKW6345 flight status page for this flight to view local times or setup timezone preferences in your user account.

Time Position Orientation Groundspeed Altitude Reporting Facility
EDT Latitude Longitude Course Direction KTS MPH feet Rate Location/Type
07:39PM 33.9500 -118.4333 263° West 133 153 1,300  Level Southern California TRACON
07:40PM 33.9464 -118.4669 263° West 164 189 2,000 1,380 Climbing Los Angeles Center
07:41PM 33.9547 -118.5269 280° West 177 204 3,500 1,500 Climbing Los Angeles Center
07:42PM 33.9656 -118.5969 281° West 191 220 5,100 1,440 Climbing Los Angeles Center
07:43PM 34.0114 -118.6183 339° North 192 221 6,500 900 Climbing Los Angeles Center
07:44PM 34.0750 -118.6278 353° North 216 249 7,000 720 Climbing Los Angeles Center
07:45PM 34.1358 -118.6369 353° North 234 269 8,000 960 Climbing Los Angeles Center
07:46PM 34.2025 -118.6414 357° North 238 274 9,000 960 Climbing Los Angeles Center
07:47PM 34.2708 -118.6481 355° North 242 278 10,000 1,020 Climbing Los Angeles Center
07:48PM 34.3550 -118.6547 356° North 248 285 11,200 900 Climbing Los Angeles Center
07:49PM 34.4253 -118.6639 354° North 252 290 11,900 360 Climbing Los Angeles Center
07:50PM 34.4942 -118.7039 334° Northwest 271 312 12,000  Climbing Los Angeles Center
07:51PM 34.5667 -118.7431 336° Northwest 285 328 12,000 540 Level Los Angeles Center
07:52PM 34.6364 -118.7783 337° Northwest 270 311 13,200 960 Climbing Los Angeles Center
07:53PM 34.7156 -118.8167 338° Northwest 257 296 14,100 1,140 Climbing Los Angeles Center
07:54PM 34.7867 -118.8297 351° North 261 300 15,600 960 Climbing Los Angeles Center
07:55PM 34.8581 -118.8403 353° North 256 295 16,100 180 Climbing Los Angeles Center
07:56PM 34.9450 -118.8533 353° North 281 323 16,000 300 Descending Los Angeles Center
07:57PM 35.0253 -118.8672 352° North 288 331 16,800 900 Climbing Los Angeles Center
07:59PM 35.0964 -118.8800 352° North 271 312 17,900 900 Climbing Los Angeles Center
08:00PM 35.1661 -118.8925 352° North 257 296 18,700 720 Climbing Los Angeles Center
08:01PM 35.2406 -118.9053 352° North 265 305 19,500 600 Climbing Los Angeles Center
08:02PM 35.3103 -118.9172 352° North 262 302 20,000 240 Climbing Los Angeles Center
08:03PM 35.4047 -118.9328 352° North 280 322 20,000  Level Los Angeles Center
08:04PM 35.4856 -118.9464 352° North 288 331 20,000  Level Los Angeles Center
08:05PM 35.5642 -118.9594 352° North 288 331 20,000  Level Los Angeles Center
08:06PM 35.6436 -118.9733 352° North 288 331 20,000  Level Los Angeles Center
08:07PM 35.7217 -118.9883 351° North 287 330 20,000 -120 Level Los Angeles Center
08:08PM 35.8158 -119.0053 352° North 287 330 19,800 -1,200 Descending Los Angeles Center
08:09PM 35.8942 -119.0169 353° North 286 329 17,600 -2,100 Descending Los Angeles Center
08:10PM 35.9628 -119.0436 343° North 270 311 15,500 -1,740 Descending Los Angeles Center
08:11PM 36.0289 -119.0769 338° Northwest 264 304 14,000 -720 Descending Los Angeles Center
08:12PM 36.0903 -119.1086 337° Northwest 249 287 14,000  Level Los Angeles Center
08:13PM 36.1697 -119.1436 340° North 249 287 14,000 -420 Level Los Angeles Center
08:14PM 36.2369 -119.1744 340° North 253 291 13,200 -960 Descending Los Angeles Center
08:15PM 36.3114 -119.2103 339° North 276 318 12,100 -1,620 Descending Los Angeles Center
08:16PM 36.3853 -119.2472 338° Northwest 279 321 9,900 -2,280 Descending Los Angeles Center
08:17PM 36.4597 -119.2822 339° North 283 326 7,400 -2,400 Descending Los Angeles Center
08:18PM 36.5308 -119.3181 338° Northwest 283 326 5,000 -2,280 Descending Los Angeles Center
08:19PM 36.5872 -119.3861 316° Northwest 255 293 2,700 -1,200 Descending Los Angeles Center
08:20PM 36.6208 -119.4461 305° West 232 267 2,600 -120 Descending Los Angeles Center
08:22PM 36.6686 -119.5281 306° West 205 236 2,500 -360 Descending Oakland Center
08:23PM 36.6992 -119.5822 305° West 188 216 1,800 -360 Descending Oakland Center
08:24PM 36.7200 -119.6181 306° West 140 161 1,800 -300 Level Oakland Center
08:25PM 36.7408 -119.6547 305° West 128 147 1,300 -540 Descending Oakland Center
08:26PM 36.7611 -119.6903 305° West 127 146 700 -600 Descending Oakland Center